Time;durP1;ratioP1;P1;durP2;ratioP2;P2;SDS_P1;SDS_P2;PMS_P1;PMS_P2;Temp;Humidity;BMP_temperature;BMP_pressure;BME280_temperature;BME280_humidity;BME280_pressure;Samples;Min_cycle;Max_cycle;Signal;HPM_P1;HPM_P2
2022/04/01 00:00:04;;;;;;;9.13;4.50;;;3.70;99.90;;;;;;4963742;28;21019;-54
2022/04/01 00:02:30;;;;;;;7.17;4.40;;;3.70;99.90;;;;;;4965943;28;20580;-53
2022/04/01 00:04:57;;;;;;;4.03;3.70;;;3.60;99.90;;;;;;4966736;28;20650;-53
2022/04/01 00:07:24;;;;;;;8.17;4.40;;;3.60;99.90;;;;;;4968691;28;21066;-54
2022/04/01 00:09:50;;;;;;;9.40;3.70;;;3.60;99.90;;;;;;4968196;28;20461;-54
2022/04/01 00:12:17;;;;;;;4.03;3.63;;;3.50;99.90;;;;;;4969440;28;20568;-54
2022/04/01 00:14:43;;;;;;;13.50;5.00;;;3.50;99.90;;;;;;4969543;28;20484;-49
2022/04/01 00:17:11;;;;;;;6.33;4.00;;;3.50;99.90;;;;;;4968109;28;20556;-51
2022/04/01 00:19:38;;;;;;;7.20;4.10;;;3.50;99.90;;;;;;4978770;28;20556;-51
2022/04/01 00:22:04;;;;;;;9.10;4.40;;;3.40;99.90;;;;;;4968100;28;20580;-52
2022/04/01 00:24:31;;;;;;;6.40;4.40;;;3.40;99.90;;;;;;4975164;28;20615;-52
2022/04/01 00:26:58;;;;;;;3.87;3.50;;;3.40;99.90;;;;;;4969746;28;20554;-53
2022/04/01 00:29:25;;;;;;;10.67;4.30;;;3.40;99.90;;;;;;4970847;28;20513;-53
2022/04/01 00:31:58;;;;;;;5.53;3.90;;;3.40;99.90;;;;;;4969754;28;20987;-52
2022/04/01 00:34:27;;;;;;;4.20;3.73;;;3.30;99.90;;;;;;4968311;28;20470;-51
2022/04/01 00:36:55;;;;;;;7.03;4.27;;;3.30;99.90;;;;;;4964170;28;21035;-51
2022/04/01 00:39:23;;;;;;;4.63;4.23;;;3.20;99.90;;;;;;4969204;28;20464;-51
2022/04/01 00:41:49;;;;;;;8.50;4.03;;;3.10;99.90;;;;;;4970973;28;20589;-51
2022/04/01 00:44:18;;;;;;;5.53;4.50;;;3.20;99.90;;;;;;4970502;28;20633;-51
2022/04/01 00:46:46;;;;;;;5.47;3.70;;;3.10;99.90;;;;;;4974846;28;20547;-51
2022/04/01 00:49:13;;;;;;;5.47;4.50;;;3.10;99.90;;;;;;4974715;28;20560;-51
2022/04/01 00:51:43;;;;;;;5.33;3.97;;;3.10;99.90;;;;;;4977078;28;20559;-52
2022/04/01 00:54:10;;;;;;;4.03;3.70;;;3.10;99.90;;;;;;4975452;28;20544;-51
2022/04/01 00:56:38;;;;;;;4.87;4.07;;;3.00;99.90;;;;;;4973150;28;21019;-51
2022/04/01 00:59:05;;;;;;;13.63;4.73;;;3.00;99.90;;;;;;4972401;28;20488;-51
2022/04/01 01:01:33;;;;;;;3.53;3.23;;;3.00;99.90;;;;;;4977422;28;20488;-55
2022/04/01 01:04:02;;;;;;;5.50;4.30;;;3.00;99.90;;;;;;4974751;28;20962;-53
2022/04/01 01:06:40;;;;;;;;;;;;;;;;;;;;;
2022/04/01 01:09:09;;;;;;;5.80;3.43;;;2.90;99.90;;;;;;4964819;28;20528;-53
2022/04/01 01:11:36;;;;;;;10.10;3.93;;;2.90;99.90;;;;;;4977190;28;20516;-49
2022/04/01 01:14:03;;;;;;;5.43;4.40;;;2.80;99.90;;;;;;4974321;28;20453;-49
2022/04/01 01:16:31;;;;;;;5.50;4.77;;;2.70;99.90;;;;;;4974454;28;20888;-49
2022/04/01 01:19:03;;;;;;;5.87;3.87;;;2.80;99.90;;;;;;4967482;28;20460;-49
2022/04/01 01:21:30;;;;;;;4.50;4.10;;;2.70;99.90;;;;;;4967030;28;20493;-49
2022/04/01 01:24:01;;;;;;;7.37;4.40;;;2.70;99.90;;;;;;4972683;28;20599;-50
2022/04/01 01:26:28;;;;;;;5.20;3.47;;;2.70;99.90;;;;;;4969556;28;20500;-49
2022/04/01 01:28:57;;;;;;;5.90;3.73;;;2.60;99.90;;;;;;4967097;28;20597;-50
2022/04/01 01:31:24;;;;;;;4.57;4.13;;;2.60;99.90;;;;;;4973942;28;20533;-49
2022/04/01 01:33:51;;;;;;;8.43;3.67;;;2.60;99.90;;;;;;4972501;28;20503;-49
2022/04/01 01:36:18;;;;;;;3.83;3.53;;;2.60;99.90;;;;;;4973462;28;20493;-50
2022/04/01 01:38:45;;;;;;;7.60;3.77;;;2.60;99.90;;;;;;4973589;28;20539;-49
2022/04/01 01:41:11;;;;;;;5.20;4.00;;;2.60;99.90;;;;;;4975084;28;20564;-50
2022/04/01 01:43:40;;;;;;;4.43;3.30;;;2.60;99.90;;;;;;4972668;28;20556;-50
2022/04/01 01:46:07;;;;;;;4.43;4.03;;;2.50;99.90;;;;;;4974370;28;20489;-50
2022/04/01 01:48:34;;;;;;;5.73;4.87;;;2.50;99.90;;;;;;4972836;28;20494;-53
2022/04/01 01:56:29;;;;;;;5.67;4.90;;;2.40;99.90;;;;;;4974210;28;20476;-52
2022/04/01 01:58:57;;;;;;;6.67;4.50;;;2.40;99.90;;;;;;4977067;28;20540;-52
2022/04/01 02:01:24;;;;;;;13.47;4.73;;;2.30;99.90;;;;;;4971999;28;20509;-52
2022/04/01 02:03:51;;;;;;;8.40;5.30;;;2.40;99.90;;;;;;4974043;28;20493;-53
2022/04/01 02:06:17;;;;;;;12.80;4.60;;;2.30;99.90;;;;;;4968228;28;20470;-53
2022/04/01 02:08:44;;;;;;;7.03;4.30;;;2.40;99.90;;;;;;4972779;28;20561;-52
2022/04/01 02:11:10;;;;;;;25.67;4.50;;;2.30;99.90;;;;;;4967327;28;20572;-52
2022/04/01 02:13:37;;;;;;;6.80;4.63;;;2.20;99.90;;;;;;4971287;28;20627;-52
2022/04/01 02:16:05;;;;;;;6.50;4.73;;;2.20;99.90;;;;;;4966339;28;20552;-51
2022/04/01 02:18:31;;;;;;;15.80;4.90;;;2.20;99.90;;;;;;4967805;28;20493;-52
2022/04/01 02:20:58;;;;;;;5.40;4.73;;;2.20;99.90;;;;;;4971337;28;20521;-52
2022/04/01 02:23:26;;;;;;;4.93;4.47;;;2.20;99.90;;;;;;4968004;28;20588;-55
2022/04/01 02:25:52;;;;;;;10.97;3.60;;;2.20;99.90;;;;;;4963731;28;20465;-54
2022/04/01 02:28:19;;;;;;;5.17;4.67;;;2.20;99.90;;;;;;4962577;28;20553;-54
2022/04/01 02:30:45;;;;;;;4.93;4.43;;;2.10;99.90;;;;;;4968621;28;20636;-55
2022/04/01 02:33:14;;;;;;;5.03;4.40;;;2.10;99.90;;;;;;4967418;28;21664;-54
2022/04/01 02:35:42;;;;;;;11.33;4.07;;;2.00;99.90;;;;;;4962426;28;20959;-55
2022/04/01 02:38:09;;;;;;;3.87;3.57;;;2.00;99.90;;;;;;4969447;28;20879;-54
2022/04/01 02:40:36;;;;;;;6.30;4.63;;;2.00;99.90;;;;;;4968030;28;20482;-54
2022/04/01 02:43:03;;;;;;;5.20;4.70;;;2.00;99.90;;;;;;4971145;28;20529;-55
2022/04/01 02:45:29;;;;;;;12.77;5.00;;;1.90;99.90;;;;;;4970332;28;20516;-55
2022/04/01 02:47:56;;;;;;;8.53;4.90;;;1.80;99.90;;;;;;4970857;28;20521;-54
2022/04/01 02:50:25;;;;;;;5.70;4.30;;;1.90;99.90;;;;;;4973483;28;20524;-55
2022/04/01 02:52:51;;;;;;;11.93;5.50;;;1.90;99.90;;;;;;4967750;28;20516;-54
2022/04/01 02:55:18;;;;;;;5.70;4.37;;;1.90;99.90;;;;;;4974320;28;20481;-52
2022/04/01 02:57:45;;;;;;;4.87;4.37;;;1.90;99.90;;;;;;4970206;28;20504;-53
2022/04/01 03:00:21;;;;;;;6.73;5.00;;;1.90;99.90;;;;;;4971699;28;20465;-54
2022/04/01 03:02:48;;;;;;;14.17;4.77;;;1.90;99.90;;;;;;4970589;28;20905;-54
2022/04/01 03:05:15;;;;;;;7.03;4.00;;;1.80;99.90;;;;;;4973552;28;20469;-53
2022/04/01 03:07:43;;;;;;;5.43;4.50;;;1.80;99.90;;;;;;4968173;28;20512;-53
2022/04/01 03:10:10;;;;;;;4.70;4.30;;;1.70;99.90;;;;;;4972624;28;20472;-53
2022/04/01 03:12:37;;;;;;;8.27;4.90;;;1.80;99.90;;;;;;4971877;28;20466;-53
2022/04/01 03:15:05;;;;;;;5.27;4.60;;;1.80;99.90;;;;;;4966286;28;20453;-52
2022/04/01 03:17:32;;;;;;;9.03;4.63;;;1.70;99.90;;;;;;4970145;28;20916;-52
2022/04/01 03:20:01;;;;;;;6.90;4.80;;;1.70;99.90;;;;;;4971138;28;20553;-52
2022/04/01 03:22:27;;;;;;;11.47;5.13;;;1.70;99.90;;;;;;4971566;28;21049;-51
2022/04/01 03:24:55;;;;;;;5.00;4.10;;;1.80;99.90;;;;;;4972717;28;20489;-51
2022/04/01 03:27:22;;;;;;;6.27;4.23;;;1.70;99.90;;;;;;4972217;28;20528;-51
2022/04/01 03:29:48;;;;;;;8.10;4.43;;;1.70;99.90;;;;;;4967325;28;21002;-50
2022/04/01 03:32:15;;;;;;;10.10;4.87;;;1.70;99.90;;;;;;4970739;28;20533;-51
2022/04/01 03:34:42;;;;;;;5.33;3.97;;;1.80;99.90;;;;;;4972474;28;20597;-51
2022/04/01 03:37:10;;;;;;;7.50;4.40;;;1.70;99.90;;;;;;4971846;28;20959;-51
2022/04/01 03:39:36;;;;;;;4.50;4.10;;;1.70;99.90;;;;;;4970333;28;20978;-54
2022/04/01 03:42:06;;;;;;;4.70;4.30;;;1.70;99.90;;;;;;4973072;28;20524;-53
2022/04/01 03:44:36;;;;;;;6.13;4.90;;;1.50;99.90;;;;;;4971364;28;20483;-53
2022/04/01 03:47:05;;;;;;;12.53;5.57;;;1.50;99.90;;;;;;4971785;28;20465;-54
2022/04/01 03:49:34;;;;;;;4.97;3.60;;;1.50;99.90;;;;;;4969846;28;20980;-53
2022/04/01 03:52:01;;;;;;;17.03;4.20;;;1.40;99.90;;;;;;4970508;28;20470;-55
2022/04/01 03:54:29;;;;;;;6.97;4.23;;;1.40;99.90;;;;;;4966428;28;20548;-49
2022/04/01 03:56:59;;;;;;;4.80;4.40;;;1.40;99.90;;;;;;4967036;28;20465;-50
2022/04/01 03:59:40;;;;;;;10.30;4.00;;;1.40;99.90;;;;;;4967906;28;20470;-50
2022/04/01 04:02:10;;;;;;;4.10;3.67;;;1.40;99.90;;;;;;4970364;28;20477;-51
2022/04/01 04:04:37;;;;;;;4.47;4.07;;;1.30;99.90;;;;;;4971609;28;20497;-50
2022/04/01 04:07:06;;;;;;;5.80;5.03;;;1.40;99.90;;;;;;4973057;28;20492;-50
2022/04/01 04:09:34;;;;;;;5.17;4.17;;;1.40;99.90;;;;;;4969495;28;20548;-51
2022/04/01 04:12:01;;;;;;;9.50;4.73;;;1.30;99.90;;;;;;4971882;28;20520;-50
2022/04/01 04:14:30;;;;;;;5.07;4.50;;;1.20;99.90;;;;;;4966125;28;20468;-52
2022/04/01 04:16:58;;;;;;;6.30;4.40;;;1.20;99.90;;;;;;4970629;28;20478;-52
2022/04/01 04:19:31;;;;;;;12.23;4.20;;;1.30;99.90;;;;;;4970319;28;20508;-53
2022/04/01 04:22:07;;;;;;;5.80;4.70;;;1.20;99.90;;;;;;4972327;28;21035;-53
2022/04/01 04:24:42;;;;;;;6.87;3.83;;;1.20;99.90;;;;;;4966701;28;20794;-52
2022/04/01 04:27:11;;;;;;;7.20;5.30;;;1.10;99.90;;;;;;4966651;28;20461;-52
2022/04/01 04:29:46;;;;;;;7.10;5.07;;;1.10;99.90;;;;;;4970945;28;20464;-52
2022/04/01 04:32:24;;;;;;;6.50;4.67;;;1.20;99.90;;;;;;4966760;28;20572;-52
2022/04/01 04:34:51;;;;;;;8.07;5.20;;;1.20;99.90;;;;;;4967886;28;20489;-52
2022/04/01 04:37:22;;;;;;;5.40;4.20;;;1.20;99.90;;;;;;4962757;28;20489;-52
2022/04/01 04:39:50;;;;;;;7.43;5.03;;;1.20;99.90;;;;;;4962344;28;20538;-53
2022/04/01 04:42:17;;;;;;;6.80;5.03;;;1.20;99.90;;;;;;4963045;28;20489;-52
2022/04/01 04:44:46;;;;;;;8.43;5.47;;;1.10;99.90;;;;;;4963616;28;20573;-53
2022/04/01 04:47:13;;;;;;;5.93;4.50;;;1.20;99.90;;;;;;4963631;28;20505;-53
2022/04/01 04:49:42;;;;;;;21.33;5.97;;;1.10;99.90;;;;;;4965026;28;20515;-52
2022/04/01 04:52:10;;;;;;;6.33;4.00;;;1.10;99.90;;;;;;4964319;28;20521;-52
2022/04/01 04:54:40;;;;;;;4.43;4.03;;;1.10;99.90;;;;;;4965670;28;20590;-52
2022/04/01 04:57:07;;;;;;;7.70;4.63;;;1.20;99.90;;;;;;4966698;28;20524;-52
2022/04/01 04:59:35;;;;;;;24.93;4.33;;;1.10;99.90;;;;;;4971774;28;21173;-52
2022/04/01 05:02:06;;;;;;;10.07;4.20;;;1.10;99.90;;;;;;4968615;28;20572;-57
2022/04/01 05:04:47;;;;;;;4.00;3.70;;;1.10;99.90;;;;;;4965806;28;20513;-53
2022/04/01 05:07:30;;;;;;;5.00;4.03;;;1.20;99.90;;;;;;4969192;28;20548;-52
2022/04/01 05:10:02;;;;;;;5.10;4.00;;;1.10;99.90;;;;;;4970878;28;20520;-52
2022/04/01 05:12:34;;;;;;;4.70;3.30;;;1.10;99.90;;;;;;4969137;28;20551;-52
2022/04/01 05:15:08;;;;;;;4.30;3.80;;;1.10;99.90;;;;;;4968740;28;20208;-51
2022/04/01 05:17:37;;;;;;;5.03;3.73;;;1.10;99.90;;;;;;4967629;28;21177;-53
2022/04/01 05:20:11;;;;;;;4.00;3.47;;;1.20;99.90;;;;;;4969966;28;20473;-53
2022/04/01 05:22:49;;;;;;;4.13;3.73;;;1.30;99.90;;;;;;4971294;28;20501;-52
2022/04/01 05:25:19;;;;;;;6.50;4.10;;;1.30;99.90;;;;;;4966980;28;20461;-52
2022/04/01 05:27:49;;;;;;;5.13;3.87;;;1.40;99.90;;;;;;4972262;28;20484;-52
2022/04/01 05:30:17;;;;;;;7.80;4.03;;;1.40;99.90;;;;;;4977039;28;20508;-52
2022/04/01 05:32:58;;;;;;;4.50;3.37;;;1.40;99.90;;;;;;4969811;28;20496;-52
2022/04/01 05:35:27;;;;;;;6.37;3.93;;;1.50;99.90;;;;;;4968225;28;20504;-51
2022/04/01 05:37:55;;;;;;;6.70;3.33;;;1.40;99.90;;;;;;4974358;28;20495;-52
2022/04/01 05:40:23;;;;;;;3.93;3.20;;;1.50;99.90;;;;;;4968813;28;20566;-52
2022/04/01 05:42:52;;;;;;;5.27;3.80;;;1.60;99.90;;;;;;4973064;28;20576;-52
2022/04/01 05:45:19;;;;;;;3.70;3.40;;;1.50;99.90;;;;;;4971874;28;20461;-52
2022/04/01 05:47:48;;;;;;;4.57;4.13;;;1.40;99.90;;;;;;4968054;28;20519;-52
2022/04/01 05:50:19;;;;;;;5.20;3.27;;;1.50;99.90;;;;;;4967832;28;20527;-52
2022/04/01 05:52:47;;;;;;;7.70;4.13;;;1.50;99.90;;;;;;4971615;28;20461;-53
2022/04/01 05:55:15;;;;;;;11.57;3.97;;;1.50;99.90;;;;;;4971575;28;21039;-52
2022/04/01 05:57:42;;;;;;;8.83;3.47;;;1.50;99.90;;;;;;4967096;28;20549;-52
2022/04/01 06:00:12;;;;;;;3.60;3.27;;;1.50;99.90;;;;;;4971227;28;20457;-53
2022/04/01 06:02:57;;;;;;;6.80;3.43;;;1.50;99.90;;;;;;4970885;28;20465;-52
2022/04/01 06:05:29;;;;;;;7.10;4.10;;;1.60;99.90;;;;;;4969849;28;20553;-51
2022/04/01 06:08:13;;;;;;;6.93;3.90;;;1.60;99.90;;;;;;4972275;28;20998;-52
2022/04/01 06:10:47;;;;;;;3.93;3.03;;;1.60;99.90;;;;;;4974175;28;20504;-52
2022/04/01 06:13:23;;;;;;;3.23;3.03;;;1.70;99.90;;;;;;4971121;28;20540;-53
2022/04/01 06:16:01;;;;;;;6.67;3.90;;;1.80;99.90;;;;;;4971832;28;20500;-52
2022/04/01 06:18:37;;;;;;;4.37;3.20;;;1.80;99.90;;;;;;4973489;28;20494;-52
2022/04/01 06:21:05;;;;;;;3.87;3.10;;;1.80;99.90;;;;;;4974173;28;20547;-52
2022/04/01 06:23:50;;;;;;;7.23;3.60;;;1.70;99.90;;;;;;4973578;28;21038;-52
2022/04/01 06:26:17;;;;;;;8.23;3.83;;;1.90;99.90;;;;;;4955723;28;20485;-52
2022/04/01 06:28:54;;;;;;;6.13;3.13;;;1.90;99.90;;;;;;4973459;28;20499;-52
2022/04/01 06:31:23;;;;;;;4.23;3.83;;;2.00;99.90;;;;;;4972865;28;20521;-53
2022/04/01 06:34:00;;;;;;;6.30;4.20;;;2.00;99.90;;;;;;4971599;28;20485;-52
2022/04/01 06:36:35;;;;;;;4.80;3.80;;;2.10;99.90;;;;;;4970080;28;20896;-53
2022/04/01 06:39:04;;;;;;;9.33;3.20;;;2.20;99.90;;;;;;4971978;28;21046;-52
2022/04/01 06:41:32;;;;;;;5.17;3.30;;;2.30;99.90;;;;;;4973484;28;20504;-52
2022/04/01 06:43:59;;;;;;;5.47;4.00;;;2.30;99.90;;;;;;4972322;28;20577;-52
2022/04/01 06:46:26;;;;;;;4.07;3.37;;;2.30;99.90;;;;;;4972596;28;20496;-52
2022/04/01 06:48:54;;;;;;;8.17;3.70;;;2.40;99.90;;;;;;4969728;28;20472;-52
2022/04/01 06:51:20;;;;;;;8.10;3.27;;;2.40;99.90;;;;;;4974628;28;20497;-52
2022/04/01 06:53:47;;;;;;;3.77;3.37;;;2.50;99.90;;;;;;4972475;28;20500;-52
2022/04/01 06:56:13;;;;;;;5.13;3.30;;;2.80;99.90;;;;;;4972523;28;20515;-52
2022/04/01 06:58:40;;;;;;;4.10;3.07;;;2.70;99.90;;;;;;4971151;28;20498;-52
2022/04/01 07:01:07;;;;;;;3.73;3.17;;;2.80;99.90;;;;;;4973670;28;20925;-52
2022/04/01 07:03:35;;;;;;;4.97;3.63;;;2.80;99.90;;;;;;4967915;28;20498;-52
2022/04/01 07:06:04;;;;;;;4.43;3.30;;;3.10;99.90;;;;;;4973521;28;20457;-52
2022/04/01 07:08:30;;;;;;;6.83;3.23;;;3.10;99.90;;;;;;4971930;28;20554;-52
2022/04/01 07:10:58;;;;;;;8.20;3.03;;;3.30;99.90;;;;;;4973439;28;20496;-52
2022/04/01 07:13:25;;;;;;;7.20;3.60;;;3.30;99.90;;;;;;4967998;28;20509;-52
2022/04/01 07:15:52;;;;;;;2.60;2.40;;;3.40;99.90;;;;;;4972088;28;20503;-52
2022/04/01 07:18:19;;;;;;;6.50;2.67;;;3.40;99.90;;;;;;4971989;28;20494;-52
2022/04/01 07:20:47;;;;;;;5.27;2.50;;;3.10;99.90;;;;;;4973013;28;20860;-53
2022/04/01 07:23:15;;;;;;;7.77;3.40;;;3.40;99.90;;;;;;4972302;28;20523;-52
2022/04/01 07:25:42;;;;;;;7.03;2.50;;;3.60;99.90;;;;;;4972152;28;20461;-52
2022/04/01 07:28:09;;;;;;;5.40;3.03;;;3.60;99.90;;;;;;4971363;28;20458;-52
2022/04/01 07:30:36;;;;;;;5.10;2.63;;;3.60;99.90;;;;;;4972098;28;20513;-53
2022/04/01 07:33:03;;;;;;;12.93;3.37;;;3.50;99.90;;;;;;4973650;28;20480;-52
2022/04/01 07:35:31;;;;;;;2.80;2.60;;;3.70;99.90;;;;;;4971506;28;20461;-52
2022/04/01 07:37:58;;;;;;;3.83;2.67;;;3.90;99.90;;;;;;4973312;28;20469;-53
2022/04/01 07:40:26;;;;;;;3.30;3.00;;;3.90;99.90;;;;;;4971392;28;20513;-52
2022/04/01 07:42:54;;;;;;;2.63;2.43;;;4.00;99.90;;;;;;4970894;28;20466;-52
2022/04/01 07:45:21;;;;;;;6.13;3.13;;;4.00;99.90;;;;;;4969326;28;20927;-52
2022/04/01 07:47:49;;;;;;;3.70;2.77;;;4.20;99.90;;;;;;4965073;28;20922;-52
2022/04/01 07:50:17;;;;;;;7.30;3.00;;;4.30;99.90;;;;;;4960684;28;20949;-52
2022/04/01 07:52:44;;;;;;;5.87;2.70;;;4.40;99.90;;;;;;4964769;28;20897;-53
2022/04/01 07:55:12;;;;;;;3.13;2.93;;;4.50;99.90;;;;;;4970693;28;20983;-52
2022/04/01 07:57:40;;;;;;;3.87;3.17;;;4.50;99.90;;;;;;4970263;28;20493;-53
2022/04/01 08:00:08;;;;;;;2.87;2.67;;;4.60;99.90;;;;;;4968034;28;20568;-52
2022/04/01 08:02:35;;;;;;;3.70;2.93;;;4.50;99.90;;;;;;4967179;28;20523;-53
2022/04/01 08:05:02;;;;;;;3.37;2.53;;;4.60;99.90;;;;;;4967060;28;20497;-53
2022/04/01 08:07:28;;;;;;;4.00;3.03;;;4.60;99.90;;;;;;4970069;28;20501;-52
2022/04/01 08:09:56;;;;;;;5.67;2.60;;;4.80;99.90;;;;;;4963639;28;20549;-52
2022/04/01 08:12:22;;;;;;;4.23;2.97;;;4.70;99.90;;;;;;4969171;28;20845;-53
2022/04/01 08:14:50;;;;;;;2.80;2.47;;;4.80;99.90;;;;;;4973072;28;20445;-53
2022/04/01 08:17:17;;;;;;;4.07;3.17;;;4.80;99.90;;;;;;4970916;28;20545;-52
2022/04/01 08:19:44;;;;;;;3.40;2.47;;;4.80;99.90;;;;;;4968656;28;20458;-52
2022/04/01 08:22:11;;;;;;;2.40;2.30;;;4.90;99.90;;;;;;4970758;28;20509;-52
2022/04/01 08:24:38;;;;;;;5.00;2.70;;;5.00;99.90;;;;;;4971701;28;21211;-52
2022/04/01 08:27:05;;;;;;;4.63;2.50;;;4.80;99.90;;;;;;4971307;28;20532;-53
2022/04/01 08:29:31;;;;;;;4.83;2.60;;;5.10;99.90;;;;;;4971337;28;20488;-52
2022/04/01 08:31:59;;;;;;;2.73;2.40;;;5.20;99.90;;;;;;4970338;28;20497;-52
2022/04/01 08:34:26;;;;;;;1.90;1.80;;;5.30;99.90;;;;;;4967675;28;20504;-53
2022/04/01 08:36:53;;;;;;;4.50;2.50;;;5.10;99.90;;;;;;4970791;28;20484;-53
2022/04/01 08:39:21;;;;;;;4.37;2.50;;;5.40;99.90;;;;;;4970838;28;20516;-53
2022/04/01 08:41:47;;;;;;;5.27;2.83;;;5.50;99.90;;;;;;4969302;28;21065;-53
2022/04/01 08:44:15;;;;;;;2.30;2.20;;;5.40;99.90;;;;;;4951901;29;20581;-53
2022/04/01 08:46:41;;;;;;;2.17;2.07;;;5.60;99.90;;;;;;4951623;28;20548;-52
2022/04/01 08:49:10;;;;;;;17.90;2.63;;;5.60;99.90;;;;;;4956604;28;20556;-52
2022/04/01 08:51:36;;;;;;;2.67;2.50;;;5.70;99.90;;;;;;4971884;28;20852;-53
2022/04/01 08:54:04;;;;;;;7.90;2.90;;;5.50;99.90;;;;;;4972650;28;20445;-52
2022/04/01 08:56:31;;;;;;;5.13;2.87;;;5.70;99.90;;;;;;4972483;28;20449;-52
2022/04/01 08:58:58;;;;;;;7.33;2.60;;;5.90;99.90;;;;;;4972358;28;20508;-52
2022/04/01 09:01:24;;;;;;;11.23;2.33;;;6.00;99.90;;;;;;4972947;28;20466;-52
2022/04/01 09:03:53;;;;;;;5.60;3.57;;;5.90;99.90;;;;;;4969927;28;20516;-53
2022/04/01 09:06:21;;;;;;;4.20;2.07;;;6.10;99.90;;;;;;4972296;28;20481;-53
2022/04/01 09:08:48;;;;;;;6.50;2.47;;;6.30;99.90;;;;;;4967631;28;20868;-53
2022/04/01 09:11:17;;;;;;;5.13;2.70;;;6.30;99.90;;;;;;4972516;28;20995;-53
2022/04/01 09:13:51;;;;;;;4.80;2.23;;;5.90;99.90;;;;;;4971298;28;20461;-53
2022/04/01 09:16:27;;;;;;;3.90;2.50;;;6.20;99.90;;;;;;4972389;28;20472;-52
2022/04/01 09:18:55;;;;;;;6.00;3.13;;;5.90;99.90;;;;;;4972417;28;20445;-52
2022/04/01 09:21:28;;;;;;;5.50;4.70;;;6.30;99.90;;;;;;4972257;28;20492;-52
2022/04/01 09:23:55;;;;;;;7.70;3.23;;;6.40;99.90;;;;;;4972543;28;20536;-53
2022/04/01 09:26:22;;;;;;;4.80;2.40;;;6.50;99.90;;;;;;4971810;28;20545;-53
2022/04/01 09:28:53;;;;;;;4.17;2.37;;;6.50;99.90;;;;;;4972405;28;20532;-53
2022/04/01 09:31:20;;;;;;;14.27;2.50;;;5.90;99.90;;;;;;4980597;28;20519;-53
2022/04/01 09:33:49;;;;;;;5.93;2.97;;;6.50;99.90;;;;;;4974833;28;20454;-54
2022/04/01 09:36:18;;;;;;;2.83;2.63;;;7.00;99.90;;;;;;4972537;28;20512;-52
2022/04/01 09:38:57;;;;;;;2.30;2.20;;;7.20;99.90;;;;;;4972027;28;20457;-52
2022/04/01 09:41:31;;;;;;;8.20;2.60;;;7.50;99.90;;;;;;4972691;28;20497;-53
2022/04/01 09:44:06;;;;;;;3.43;2.77;;;7.60;99.90;;;;;;4970492;28;20471;-52
2022/04/01 09:46:33;;;;;;;4.23;2.70;;;7.50;99.90;;;;;;4974922;28;20465;-52
2022/04/01 09:49:00;;;;;;;2.57;2.37;;;7.50;99.90;;;;;;4975638;28;20453;-52
2022/04/01 09:51:30;;;;;;;3.40;2.30;;;7.40;99.90;;;;;;4966162;28;20501;-52
2022/04/01 09:54:02;;;;;;;13.50;3.70;;;7.80;99.90;;;;;;4970040;28;20489;-52
2022/04/01 09:56:44;;;;;;;3.23;2.70;;;8.00;99.90;;;;;;4971069;28;20556;-52
2022/04/01 09:59:13;;;;;;;6.63;3.27;;;7.50;99.90;;;;;;4963793;28;20493;-52
2022/04/01 10:01:41;;;;;;;7.23;3.80;;;7.20;99.90;;;;;;4972703;28;20469;-52
2022/04/01 10:04:09;;;;;;;8.20;4.20;;;7.40;99.90;;;;;;4973288;28;20485;-52
2022/04/01 10:06:36;;;;;;;17.33;3.53;;;8.00;99.90;;;;;;4971993;28;20477;-53
2022/04/01 10:09:07;;;;;;;4.90;3.90;;;8.50;99.90;;;;;;4972846;28;20445;-52
2022/04/01 10:11:35;;;;;;;5.90;3.37;;;8.50;99.90;;;;;;4963338;28;20526;-52
2022/04/01 10:14:07;;;;;;;2.53;2.03;;;8.70;99.90;;;;;;4971732;28;20536;-53
2022/04/01 10:16:35;;;;;;;5.30;2.80;;;8.70;99.90;;;;;;4971328;28;20512;-52
2022/04/01 10:19:07;;;;;;;10.27;2.60;;;8.60;99.90;;;;;;4968278;28;21056;-53
2022/04/01 10:21:34;;;;;;;8.43;3.30;;;8.60;99.90;;;;;;4973365;28;20532;-52
2022/04/01 10:24:09;;;;;;;12.20;2.50;;;8.60;99.90;;;;;;4966968;28;20955;-52
2022/04/01 10:26:40;;;;;;;5.07;2.50;;;8.30;99.90;;;;;;4964898;28;20956;-52
2022/04/01 10:29:08;;;;;;;3.87;2.67;;;8.80;99.90;;;;;;4974778;28;20493;-52
2022/04/01 10:31:34;;;;;;;4.73;2.33;;;8.60;99.90;;;;;;4971466;28;21067;-52
2022/04/01 10:34:20;;;;;;;2.30;2.10;;;8.70;99.90;;;;;;4974798;28;21014;-53
2022/04/01 10:36:54;;;;;;;7.47;3.00;;;9.10;99.90;;;;;;4971431;28;20464;-52
2022/04/01 10:39:24;;;;;;;5.37;2.57;;;8.80;99.90;;;;;;4964582;28;20879;-52
2022/04/01 10:42:08;;;;;;;10.13;2.93;;;9.20;99.90;;;;;;4967793;28;20921;-52
2022/04/01 10:44:45;;;;;;;4.87;2.23;;;9.20;99.90;;;;;;4970346;28;20535;-53
2022/04/01 10:47:12;;;;;;;4.20;3.10;;;9.40;99.90;;;;;;4971374;28;20480;-52
2022/04/01 10:52:23;;;;;;;9.67;4.13;;;8.50;99.90;;;;;;4964708;28;20494;-52
2022/04/01 10:55:06;;;;;;;8.97;3.90;;;8.90;99.90;;;;;;4962132;28;20540;-53
2022/04/01 10:57:35;;;;;;;15.10;2.97;;;9.10;99.90;;;;;;4972137;28;20482;-53
2022/04/01 11:00:05;;;;;;;4.00;3.30;;;9.00;99.90;;;;;;4970928;28;20484;-52
2022/04/01 11:02:31;;;;;;;5.80;3.60;;;8.10;99.90;;;;;;4974095;28;20449;-53
2022/04/01 11:05:00;;;;;;;8.23;3.30;;;8.10;99.90;;;;;;4973885;28;20577;-52
2022/04/01 11:07:33;;;;;;;4.87;3.10;;;7.70;99.90;;;;;;4972099;28;21019;-52
2022/04/01 11:10:04;;;;;;;4.20;2.93;;;8.40;99.90;;;;;;4974173;28;20512;-52
2022/04/01 11:12:36;;;;;;;6.43;2.93;;;7.90;99.90;;;;;;4962004;28;20473;-53
2022/04/01 11:15:16;;;;;;;7.83;2.57;;;8.70;99.90;;;;;;4960891;28;20548;-53
2022/04/01 11:18:02;;;;;;;3.10;2.80;;;8.20;99.90;;;;;;4964383;28;20472;-53
2022/04/01 11:20:31;;;;;;;4.20;2.60;;;8.60;99.90;;;;;;4968383;28;20532;-53
2022/04/01 11:23:06;;;;;;;5.67;2.60;;;8.70;99.90;;;;;;4962827;28;20458;-53
2022/04/01 11:25:57;;;;;;;4.87;2.60;;;8.70;99.90;;;;;;4971681;28;20572;-53
2022/04/01 11:28:29;;;;;;;4.20;2.43;;;8.80;99.90;;;;;;4966607;28;20489;-52
2022/04/01 11:31:17;;;;;;;6.17;3.03;;;8.60;99.90;;;;;;4968526;28;20481;-53
2022/04/01 11:34:01;;;;;;;9.03;2.70;;;8.70;99.90;;;;;;4963909;28;20552;-52
2022/04/01 11:36:28;;;;;;;7.00;2.57;;;8.40;99.90;;;;;;4965934;28;20508;-52
2022/04/01 11:38:55;;;;;;;10.73;2.47;;;8.40;99.90;;;;;;4969156;28;20952;-53
2022/04/01 11:41:23;;;;;;;3.37;2.40;;;8.60;99.90;;;;;;4969341;28;20597;-52
2022/04/01 11:43:50;;;;;;;12.07;2.73;;;8.50;99.90;;;;;;4967468;28;20991;-52
2022/04/01 11:46:17;;;;;;;6.93;2.87;;;8.40;99.90;;;;;;4969158;28;20481;-53
2022/04/01 11:48:45;;;;;;;5.83;2.70;;;8.40;99.90;;;;;;4967456;28;20595;-52
2022/04/01 11:51:15;;;;;;;3.97;2.53;;;8.60;99.90;;;;;;4963959;28;20581;-53
2022/04/01 11:53:45;;;;;;;3.47;2.70;;;8.50;99.90;;;;;;4969119;28;20524;-52
2022/04/01 11:56:13;;;;;;;3.70;2.43;;;8.70;99.90;;;;;;4965476;28;20462;-52
2022/04/01 11:58:56;;;;;;;5.60;2.57;;;9.00;99.90;;;;;;4969144;28;20493;-52
2022/04/01 12:01:25;;;;;;;6.37;2.47;;;9.20;99.90;;;;;;4968884;28;20943;-52
2022/04/01 12:04:01;;;;;;;2.60;2.03;;;9.20;99.90;;;;;;4969500;28;20498;-53
2022/04/01 12:09:12;;;;;;;4.50;2.60;;;9.30;99.90;;;;;;4968850;28;20461;-52
2022/04/01 12:11:41;;;;;;;3.67;2.43;;;9.60;99.90;;;;;;4968942;28;20517;-53
2022/04/01 12:14:09;;;;;;;14.13;10.63;;;9.60;99.90;;;;;;4966507;28;20457;-53
2022/04/01 12:16:40;;;;;;;6.83;2.60;;;9.70;99.90;;;;;;4970008;28;20496;-53
2022/04/01 12:19:07;;;;;;;5.30;2.60;;;9.80;99.90;;;;;;4972097;28;20493;-53
2022/04/01 12:21:33;;;;;;;4.63;2.77;;;9.40;99.90;;;;;;4969301;28;20493;-51
2022/04/01 12:24:00;;;;;;;5.40;3.83;;;9.40;99.90;;;;;;4966645;28;20501;-52
2022/04/01 12:26:28;;;;;;;6.33;5.73;;;9.50;99.90;;;;;;4964687;28;20528;-52
2022/04/01 12:28:55;;;;;;;2.70;2.50;;;9.70;99.90;;;;;;4967921;28;20468;-53
2022/04/01 12:31:24;;;;;;;4.40;2.50;;;10.10;99.90;;;;;;4961435;28;21002;-53
2022/04/01 12:33:53;;;;;;;4.00;2.20;;;9.10;99.90;;;;;;4963255;28;20520;-53
2022/04/01 12:36:30;;;;;;;4.70;2.60;;;9.30;99.90;;;;;;4965812;28;20476;-52
2022/04/01 12:39:01;;;;;;;3.67;2.80;;;9.10;99.90;;;;;;4971179;28;20466;-53
2022/04/01 12:41:28;;;;;;;5.57;3.00;;;9.10;99.90;;;;;;4968272;28;20486;-52
2022/04/01 12:43:56;;;;;;;6.40;2.47;;;8.80;99.90;;;;;;4966642;28;21183;-52
2022/04/01 12:46:30;;;;;;;4.43;2.40;;;9.10;99.90;;;;;;4966348;28;20486;-51
2022/04/01 12:48:58;;;;;;;5.20;2.10;;;9.40;99.90;;;;;;4967813;28;20560;-52
2022/04/01 12:51:25;;;;;;;4.90;2.43;;;9.60;99.90;;;;;;4969945;28;20481;-52
2022/04/01 12:53:57;;;;;;;4.57;2.90;;;9.60;99.90;;;;;;4969136;28;20469;-53
2022/04/01 12:56:26;;;;;;;15.03;2.63;;;9.70;99.90;;;;;;4958423;28;20462;-53
2022/04/01 12:58:54;;;;;;;3.90;2.53;;;9.60;99.90;;;;;;4965617;28;21029;-53
2022/04/01 13:01:24;;;;;;;4.50;2.67;;;10.00;99.90;;;;;;4968453;28;21034;-53
2022/04/01 13:03:51;;;;;;;1.90;1.80;;;10.30;99.90;;;;;;4970438;28;20450;-53
2022/04/01 13:06:18;;;;;;;2.40;2.27;;;10.60;99.90;;;;;;4967464;28;20580;-53
2022/04/01 13:08:45;;;;;;;5.60;2.20;;;11.40;99.90;;;;;;4958136;28;20473;-52
2022/04/01 13:11:13;;;;;;;13.90;3.10;;;11.50;99.90;;;;;;4970508;28;20991;-52
2022/04/01 13:13:40;;;;;;;5.87;2.30;;;11.10;99.90;;;;;;4963175;28;20508;-53
2022/04/01 13:16:07;;;;;;;12.00;6.00;;;11.00;99.90;;;;;;4958093;28;20972;-52
2022/04/01 13:18:35;;;;;;;5.73;3.70;;;11.30;99.90;;;;;;4966982;28;20464;-52